메인 페이지
METAR-TAF:

METAR-TAF

공항 :

무르만스크, 러시아

위도: 68-58N, 경도: 033-03E, 고도: 51m

현재 날씨관측

예보는 12분 전, 23:00시(UTC)에 발표되었습니다.
서북서6kt
온도 6°C
습도 75%
기압 1016 hPa
시정 10km 이상
고도 3000ft 상공 구름 많음

METAR: ULMM 232300Z 30003MPS 9999 BKN030 06/02 Q1016 R31/190060 NOSIG RMK QFE754

시각: 02:12 (23:12 UTC)

예보

예보는 3 시간 14분 전, 19:58시(UTC)에 발표되었습니다.
예보 대상 시간: 23일 21시부터 24일 21시까지 (UTC)
6kt, 순간 최대 풍속 16kt
시정 10km 이상
고도 2000ft 상공 구름 많음
일시적
23일 21시부터 24일 06시까지 (UTC)
서남서6kt
시정: 5000m
고도 2000ft 상공 구름 많음, 적란운.
약한소나기
일시적
24일 06시부터 24일 21시까지 (UTC)
북서8kt, 순간 최대 풍속 17kt
고도 2000ft 상공 구름 많음, 적란운.
약한소나기

TAF: ULMM 231958Z 2321/2421 28003G08MPS 9999 BKN020 TEMPO 2321/2406 24003MPS 5000 -SHRA BKN020CB TEMPO 2406/2421 31004G09MPS -SHRA BKN020CB

4,000개 이상의 공항 관측 자료 및 예보 (METAR 및 TAF 보고).

지도상에서 검색 가능한 기상관측소가 노란 점과 빨간 점으로 표시되어 있습니다.

기상관측소 명을 보려면 표시 위로 마우스를 이동하세요.

날씨 관측과 예보를 보려면 클릭하세요.

지도 변경 : 확대하려면 엑스 표시가 있는 녹색 버튼, 축소하려면 빼기 표시가 있는 녹색 버튼, 다음 페이지의 지도를 보려면 녹색 화살표를 클릭하세요.


METAR-TAF: